sensor_id;sensor_type;location;lat;lon;timestamp;pressure;altitude;pressure_sealevel;temperature;humidity
69411;BME280;56604;48.652;9.194;2023-07-20T00:01:11;96152.94;;;19.10;56.38
69411;BME280;56604;48.652;9.194;2023-07-20T00:03:36;96143.44;;;19.18;56.54
69411;BME280;56604;48.652;9.194;2023-07-20T00:06:02;96149.38;;;19.24;56.67
69411;BME280;56604;48.652;9.194;2023-07-20T00:08:29;96141.63;;;19.05;56.47
69411;BME280;56604;48.652;9.194;2023-07-20T00:10:55;96138.31;;;18.99;57.05
69411;BME280;56604;48.652;9.194;2023-07-20T00:13:20;96142.47;;;18.92;57.59
69411;BME280;56604;48.652;9.194;2023-07-20T00:15:46;96143.56;;;18.68;57.88
69411;BME280;56604;48.652;9.194;2023-07-20T00:18:11;96144.19;;;18.65;57.78
69411;BME280;56604;48.652;9.194;2023-07-20T00:20:37;96137.00;;;18.88;57.45
69411;BME280;56604;48.652;9.194;2023-07-20T00:23:02;96136.00;;;18.84;57.05
69411;BME280;56604;48.652;9.194;2023-07-20T00:25:27;96142.16;;;18.84;56.76
69411;BME280;56604;48.652;9.194;2023-07-20T00:27:53;96138.50;;;18.80;57.11
69411;BME280;56604;48.652;9.194;2023-07-20T00:30:18;96132.50;;;18.75;56.99
69411;BME280;56604;48.652;9.194;2023-07-20T00:32:44;96146.53;;;18.66;56.73
69411;BME280;56604;48.652;9.194;2023-07-20T00:35:10;96131.34;;;18.67;57.28
69411;BME280;56604;48.652;9.194;2023-07-20T00:37:36;96142.59;;;18.64;56.56
69411;BME280;56604;48.652;9.194;2023-07-20T00:40:02;96143.69;;;18.63;55.81
69411;BME280;56604;48.652;9.194;2023-07-20T00:42:29;96142.91;;;18.62;56.29
69411;BME280;56604;48.652;9.194;2023-07-20T00:44:54;96139.03;;;18.69;54.72
69411;BME280;56604;48.652;9.194;2023-07-20T00:47:20;96134.47;;;18.69;54.86
69411;BME280;56604;48.652;9.194;2023-07-20T00:49:45;96142.91;;;18.62;54.66
69411;BME280;56604;48.652;9.194;2023-07-20T00:52:13;96142.13;;;18.62;54.48
69411;BME280;56604;48.652;9.194;2023-07-20T00:54:39;96147.66;;;18.52;54.69
69411;BME280;56604;48.652;9.194;2023-07-20T00:57:07;96151.53;;;18.46;54.91
69411;BME280;56604;48.652;9.194;2023-07-20T00:59:33;96146.50;;;18.44;54.94
69411;BME280;56604;48.652;9.194;2023-07-20T01:01:59;96145.84;;;18.38;54.72
69411;BME280;56604;48.652;9.194;2023-07-20T01:04:24;96146.31;;;18.40;55.29
69411;BME280;56604;48.652;9.194;2023-07-20T01:07:01;96148.09;;;18.45;55.22
69411;BME280;56604;48.652;9.194;2023-07-20T01:12:33;96145.53;;;18.40;54.88
69411;BME280;56604;48.652;9.194;2023-07-20T01:15:01;96147.44;;;18.39;55.06
69411;BME280;56604;48.652;9.194;2023-07-20T01:17:26;96145.47;;;18.31;54.83
69411;BME280;56604;48.652;9.194;2023-07-20T01:19:51;96152.25;;;18.37;54.94
69411;BME280;56604;48.652;9.194;2023-07-20T01:22:57;96153.75;;;18.30;54.66
69411;BME280;56604;48.652;9.194;2023-07-20T01:25:25;96152.19;;;18.29;54.96
69411;BME280;56604;48.652;9.194;2023-07-20T01:28:11;96150.63;;;18.28;54.85
69411;BME280;56604;48.652;9.194;2023-07-20T01:31:43;96142.94;;;18.12;56.15
69411;BME280;56604;48.652;9.194;2023-07-20T01:33:50;96149.28;;;18.16;55.21
69411;BME280;56604;48.652;9.194;2023-07-20T01:36:18;96140.13;;;18.09;55.81
69411;BME280;56604;48.652;9.194;2023-07-20T01:38:44;96146.63;;;18.03;56.29
69411;BME280;56604;48.652;9.194;2023-07-20T01:41:10;96142.88;;;18.04;55.75
69411;BME280;56604;48.652;9.194;2023-07-20T01:43:36;96136.97;;;18.07;55.52
69411;BME280;56604;48.652;9.194;2023-07-20T01:46:02;96142.41;;;18.02;55.29
69411;BME280;56604;48.652;9.194;2023-07-20T01:48:27;96138.84;;;17.92;55.59
69411;BME280;56604;48.652;9.194;2023-07-20T01:50:52;96138.25;;;17.95;56.40
69411;BME280;56604;48.652;9.194;2023-07-20T01:53:19;96136.31;;;17.87;56.23
69411;BME280;56604;48.652;9.194;2023-07-20T01:55:45;96134.72;;;17.86;57.45
69411;BME280;56604;48.652;9.194;2023-07-20T01:58:10;96136.31;;;17.87;57.08
69411;BME280;56604;48.652;9.194;2023-07-20T02:00:37;96134.13;;;17.89;57.47
69411;BME280;56604;48.652;9.194;2023-07-20T02:03:02;96131.56;;;17.84;56.83
69411;BME280;56604;48.652;9.194;2023-07-20T02:05:27;96136.63;;;17.86;57.32
69411;BME280;56604;48.652;9.194;2023-07-20T02:07:53;96132.66;;;17.69;57.64
69411;BME280;56604;48.652;9.194;2023-07-20T02:10:19;96137.50;;;17.53;58.05
69411;BME280;56604;48.652;9.194;2023-07-20T02:12:44;96141.81;;;17.49;58.34
69411;BME280;56604;48.652;9.194;2023-07-20T02:15:10;96143.59;;;17.40;58.73
69411;BME280;56604;48.652;9.194;2023-07-20T02:17:36;96136.00;;;17.47;59.22
69411;BME280;56604;48.652;9.194;2023-07-20T02:20:02;96138.78;;;17.42;59.32
69411;BME280;56604;48.652;9.194;2023-07-20T02:22:28;96143.00;;;17.43;58.84
69411;BME280;56604;48.652;9.194;2023-07-20T02:24:53;96131.75;;;17.33;59.10
69411;BME280;56604;48.652;9.194;2023-07-20T02:27:18;96131.19;;;17.22;59.71
69411;BME280;56604;48.652;9.194;2023-07-20T02:29:44;96142.38;;;17.19;58.64
69411;BME280;56604;48.652;9.194;2023-07-20T02:32:09;96131.56;;;17.15;58.77
69411;BME280;56604;48.652;9.194;2023-07-20T02:34:35;96133.50;;;17.09;59.25
69411;BME280;56604;48.652;9.194;2023-07-20T02:37:01;96135.19;;;17.05;60.07
69411;BME280;56604;48.652;9.194;2023-07-20T02:39:27;96137.81;;;16.92;59.90
69411;BME280;56604;48.652;9.194;2023-07-20T02:41:53;96136.59;;;16.84;60.20
69411;BME280;56604;48.652;9.194;2023-07-20T02:44:19;96144.50;;;16.89;60.61
69411;BME280;56604;48.652;9.194;2023-07-20T02:46:44;96146.28;;;16.75;60.95
69411;BME280;56604;48.652;9.194;2023-07-20T02:49:09;96147.38;;;16.74;60.99
69411;BME280;56604;48.652;9.194;2023-07-20T02:51:35;96147.38;;;16.74;60.87
69411;BME280;56604;48.652;9.194;2023-07-20T02:54:00;96145.31;;;16.71;61.67
69411;BME280;56604;48.652;9.194;2023-07-20T02:56:26;96152.47;;;16.70;61.25
69411;BME280;56604;48.652;9.194;2023-07-20T02:58:51;96151.88;;;16.73;61.53
69411;BME280;56604;48.652;9.194;2023-07-20T03:01:17;96155.78;;;16.62;61.31
69411;BME280;56604;48.652;9.194;2023-07-20T03:03:43;96161.47;;;16.55;61.71
69411;BME280;56604;48.652;9.194;2023-07-20T03:06:15;96151.16;;;16.54;61.66
69411;BME280;56604;48.652;9.194;2023-07-20T03:08:44;96152.44;;;16.56;61.95
69411;BME280;56604;48.652;9.194;2023-07-20T03:11:10;96163.06;;;16.56;61.17
69411;BME280;56604;48.652;9.194;2023-07-20T03:13:36;96162.63;;;16.49;61.72
69411;BME280;56604;48.652;9.194;2023-07-20T03:16:01;96160.47;;;16.51;62.45
69411;BME280;56604;48.652;9.194;2023-07-20T03:18:26;96161.25;;;16.52;62.57
69411;BME280;56604;48.652;9.194;2023-07-20T03:20:52;96155.75;;;16.48;61.61
69411;BME280;56604;48.652;9.194;2023-07-20T03:23:17;96154.16;;;16.47;62.35
69411;BME280;56604;48.652;9.194;2023-07-20T03:25:42;96157.69;;;16.42;62.28
69411;BME280;56604;48.652;9.194;2023-07-20T03:28:08;96150.91;;;16.50;62.26
69411;BME280;56604;48.652;9.194;2023-07-20T03:30:33;96154.94;;;16.48;62.16
69411;BME280;56604;48.652;9.194;2023-07-20T03:32:59;96156.66;;;16.38;62.51
69411;BME280;56604;48.652;9.194;2023-07-20T03:35:24;96169.34;;;16.41;63.33
69411;BME280;56604;48.652;9.194;2023-07-20T03:37:50;96170.81;;;16.34;62.69
69411;BME280;56604;48.652;9.194;2023-07-20T03:40:15;96172.94;;;16.32;63.11
69411;BME280;56604;48.652;9.194;2023-07-20T03:42:41;96167.59;;;16.37;63.25
69411;BME280;56604;48.652;9.194;2023-07-20T03:45:07;96174.31;;;16.29;63.36
69411;BME280;56604;48.652;9.194;2023-07-20T03:47:32;96176.31;;;16.37;63.16
69411;BME280;56604;48.652;9.194;2023-07-20T03:49:58;96167.59;;;16.37;62.93
69411;BME280;56604;48.652;9.194;2023-07-20T03:52:23;96169.94;;;16.57;63.05
69411;BME280;56604;48.652;9.194;2023-07-20T03:54:49;96170.50;;;16.54;62.72
69411;BME280;56604;48.652;9.194;2023-07-20T03:57:16;96175.88;;;16.49;62.51
69411;BME280;56604;48.652;9.194;2023-07-20T03:59:45;96170.34;;;16.64;62.76
69411;BME280;56604;48.652;9.194;2023-07-20T04:02:10;96173.84;;;16.79;61.55
69411;BME280;56604;48.652;9.194;2023-07-20T04:04:36;96164.28;;;16.97;61.24
69411;BME280;56604;48.652;9.194;2023-07-20T04:07:01;96171.72;;;17.27;60.11
69411;BME280;56604;48.652;9.194;2023-07-20T04:09:26;96174.97;;;17.38;59.60
69411;BME280;56604;48.652;9.194;2023-07-20T04:11:51;96180.63;;;17.50;59.18
69411;BME280;56604;48.652;9.194;2023-07-20T04:14:17;96174.81;;;17.76;58.65
69411;BME280;56604;48.652;9.194;2023-07-20T04:16:42;96172.25;;;17.98;57.84
69411;BME280;56604;48.652;9.194;2023-07-20T04:19:07;96166.91;;;18.49;56.48
69411;BME280;56604;48.652;9.194;2023-07-20T04:21:39;96161.25;;;18.86;54.79
69411;BME280;56604;48.652;9.194;2023-07-20T04:24:05;96170.66;;;19.15;54.48
69411;BME280;56604;48.652;9.194;2023-07-20T04:26:31;96176.31;;;19.76;52.59
69411;BME280;56604;48.652;9.194;2023-07-20T04:28:56;96174.69;;;20.24;51.38
69411;BME280;56604;48.652;9.194;2023-07-20T04:31:21;96182.13;;;20.61;50.48
69411;BME280;56604;48.652;9.194;2023-07-20T04:33:46;96177.56;;;20.71;49.75
69411;BME280;56604;48.652;9.194;2023-07-20T04:36:12;96171.72;;;21.03;49.44
69411;BME280;56604;48.652;9.194;2023-07-20T04:38:39;96172.31;;;21.18;48.82
69411;BME280;56604;48.652;9.194;2023-07-20T04:41:05;96181.34;;;21.34;48.56
69411;BME280;56604;48.652;9.194;2023-07-20T04:43:30;96171.59;;;22.57;46.44
69411;BME280;56604;48.652;9.194;2023-07-20T04:45:55;96170.81;;;22.77;45.47
69411;BME280;56604;48.652;9.194;2023-07-20T04:48:21;96160.44;;;23.79;43.07
69411;BME280;56604;48.652;9.194;2023-07-20T04:50:46;96167.16;;;24.62;41.25
69411;BME280;56604;48.652;9.194;2023-07-20T04:53:12;96177.91;;;25.19;40.15
69411;BME280;56604;48.652;9.194;2023-07-20T04:55:38;96175.16;;;25.31;39.74
69411;BME280;56604;48.652;9.194;2023-07-20T04:58:05;96170.41;;;26.23;38.55
69411;BME280;56604;48.652;9.194;2023-07-20T05:00:31;96180.19;;;25.17;39.46
69411;BME280;56604;48.652;9.194;2023-07-20T05:02:57;96190.53;;;23.72;42.56
69411;BME280;56604;48.652;9.194;2023-07-20T05:05:22;96193.31;;;23.18;43.65
69411;BME280;56604;48.652;9.194;2023-07-20T05:07:47;96191.41;;;22.64;45.93
69411;BME280;56604;48.652;9.194;2023-07-20T05:10:13;96189.38;;;22.11;47.45
69411;BME280;56604;48.652;9.194;2023-07-20T05:12:38;96184.53;;;21.83;49.44
69411;BME280;56604;48.652;9.194;2023-07-20T05:15:04;96189.66;;;21.59;47.81
69411;BME280;56604;48.652;9.194;2023-07-20T05:17:29;96189.59;;;21.03;49.04
69411;BME280;56604;48.652;9.194;2023-07-20T05:19:55;96195.22;;;21.27;49.44
69411;BME280;56604;48.652;9.194;2023-07-20T05:22:20;96174.31;;;21.38;49.09
69411;BME280;56604;48.652;9.194;2023-07-20T05:24:45;96180.81;;;21.96;47.49
69411;BME280;56604;48.652;9.194;2023-07-20T05:27:10;96190.63;;;22.64;46.88
69411;BME280;56604;48.652;9.194;2023-07-20T05:29:36;96185.84;;;23.24;45.08
69411;BME280;56604;48.652;9.194;2023-07-20T05:32:01;96186.03;;;23.52;44.03
69411;BME280;56604;48.652;9.194;2023-07-20T05:34:28;96188.63;;;22.61;45.68
69411;BME280;56604;48.652;9.194;2023-07-20T05:36:53;96196.25;;;22.29;47.27
69411;BME280;56604;48.652;9.194;2023-07-20T05:39:19;96188.03;;;21.75;48.91
69411;BME280;56604;48.652;9.194;2023-07-20T05:41:44;96186.91;;;21.29;48.47
69411;BME280;56604;48.652;9.194;2023-07-20T05:44:09;96180.84;;;21.88;48.75
69411;BME280;56604;48.652;9.194;2023-07-20T05:46:35;96173.97;;;22.08;48.29
69411;BME280;56604;48.652;9.194;2023-07-20T05:49:00;96173.47;;;21.85;48.19
69411;BME280;56604;48.652;9.194;2023-07-20T05:51:26;96182.59;;;21.92;48.02
69411;BME280;56604;48.652;9.194;2023-07-20T05:53:52;96180.09;;;21.87;48.79
69411;BME280;56604;48.652;9.194;2023-07-20T05:56:17;96185.72;;;22.24;48.14
69411;BME280;56604;48.652;9.194;2023-07-20T05:58:42;96186.28;;;22.09;47.56
69411;BME280;56604;48.652;9.194;2023-07-20T06:01:08;96190.44;;;21.97;48.96
69411;BME280;56604;48.652;9.194;2023-07-20T06:03:33;96187.75;;;21.97;48.33
69411;BME280;56604;48.652;9.194;2023-07-20T06:06:03;96190.00;;;21.48;49.56
69411;BME280;56604;48.652;9.194;2023-07-20T06:08:30;96194.94;;;21.76;48.98
69411;BME280;56604;48.652;9.194;2023-07-20T06:10:55;96191.44;;;21.84;49.11
69411;BME280;56604;48.652;9.194;2023-07-20T06:13:20;96194.31;;;21.70;49.45
69411;BME280;56604;48.652;9.194;2023-07-20T06:15:46;96201.78;;;21.94;48.69
69411;BME280;56604;48.652;9.194;2023-07-20T06:18:12;96200.00;;;21.69;48.10
69411;BME280;56604;48.652;9.194;2023-07-20T06:20:37;96201.78;;;21.56;50.57
69411;BME280;56604;48.652;9.194;2023-07-20T06:23:03;96199.38;;;21.72;49.77
69411;BME280;56604;48.652;9.194;2023-07-20T06:25:28;96197.00;;;21.70;50.13
69411;BME280;56604;48.652;9.194;2023-07-20T06:27:55;96190.69;;;22.05;49.30
69411;BME280;56604;48.652;9.194;2023-07-20T06:30:21;96192.66;;;22.16;49.30
69411;BME280;56604;48.652;9.194;2023-07-20T06:32:46;96189.38;;;22.11;49.40
69411;BME280;56604;48.652;9.194;2023-07-20T06:35:11;96189.84;;;22.42;49.08
69411;BME280;56604;48.652;9.194;2023-07-20T06:37:37;96186.78;;;22.53;49.35
69411;BME280;56604;48.652;9.194;2023-07-20T06:40:03;96180.81;;;22.89;47.19
69411;BME280;56604;48.652;9.194;2023-07-20T06:42:29;96183.25;;;23.15;47.71
69411;BME280;56604;48.652;9.194;2023-07-20T06:44:56;96187.97;;;23.18;46.70
69411;BME280;56604;48.652;9.194;2023-07-20T06:47:22;96188.72;;;22.85;48.10
69411;BME280;56604;48.652;9.194;2023-07-20T06:49:47;96189.03;;;22.84;48.38
69411;BME280;56604;48.652;9.194;2023-07-20T06:52:12;96199.84;;;22.33;48.10
69411;BME280;56604;48.652;9.194;2023-07-20T06:54:38;96190.75;;;22.67;48.36
69411;BME280;56604;48.652;9.194;2023-07-20T06:57:04;96200.09;;;22.61;48.32
69411;BME280;56604;48.652;9.194;2023-07-20T06:59:30;96190.16;;;22.83;48.69
69411;BME280;56604;48.652;9.194;2023-07-20T07:01:56;96190.09;;;22.71;48.25
69411;BME280;56604;48.652;9.194;2023-07-20T07:04:21;96189.97;;;22.67;48.55
69411;BME280;56604;48.652;9.194;2023-07-20T07:06:46;96182.63;;;22.76;47.92
69411;BME280;56604;48.652;9.194;2023-07-20T07:09:12;96189.75;;;22.93;47.65
69411;BME280;56604;48.652;9.194;2023-07-20T07:11:37;96194.56;;;23.21;46.63
69411;BME280;56604;48.652;9.194;2023-07-20T07:14:03;96191.91;;;23.91;46.05
69411;BME280;56604;48.652;9.194;2023-07-20T07:16:28;96190.38;;;24.30;43.62
69411;BME280;56604;48.652;9.194;2023-07-20T07:18:53;96186.47;;;25.08;42.97
69411;BME280;56604;48.652;9.194;2023-07-20T07:21:19;96193.31;;;25.66;41.44
69411;BME280;56604;48.652;9.194;2023-07-20T07:23:45;96196.41;;;24.92;41.82
69411;BME280;56604;48.652;9.194;2023-07-20T07:26:10;96189.44;;;24.63;42.61
69411;BME280;56604;48.652;9.194;2023-07-20T07:28:36;96179.72;;;28.41;36.28
69411;BME280;56604;48.652;9.194;2023-07-20T07:31:04;96185.66;;;27.28;37.46
69411;BME280;56604;48.652;9.194;2023-07-20T07:33:30;96179.66;;;28.98;34.96
69411;BME280;56604;48.652;9.194;2023-07-20T07:35:56;96192.22;;;29.95;33.07
69411;BME280;56604;48.652;9.194;2023-07-20T07:38:21;96187.22;;;30.70;31.97
69411;BME280;56604;48.652;9.194;2023-07-20T07:40:46;96183.47;;;28.93;34.04
69411;BME280;56604;48.652;9.194;2023-07-20T07:43:12;96184.38;;;29.05;34.42
69411;BME280;56604;48.652;9.194;2023-07-20T07:45:39;96180.41;;;28.35;34.48
69411;BME280;56604;48.652;9.194;2023-07-20T07:48:06;96183.09;;;28.95;34.60
69411;BME280;56604;48.652;9.194;2023-07-20T07:50:32;96179.84;;;29.98;33.07
69411;BME280;56604;48.652;9.194;2023-07-20T07:52:57;96169.53;;;31.02;31.64
69411;BME280;56604;48.652;9.194;2023-07-20T07:55:24;96172.50;;;30.72;31.47
69411;BME280;56604;48.652;9.194;2023-07-20T07:57:49;96178.50;;;29.33;33.47
69411;BME280;56604;48.652;9.194;2023-07-20T08:00:15;96179.00;;;27.68;36.70
69411;BME280;56604;48.652;9.194;2023-07-20T08:02:44;96179.06;;;28.78;34.80
69411;BME280;56604;48.652;9.194;2023-07-20T08:05:10;96173.00;;;28.58;36.07
69411;BME280;56604;48.652;9.194;2023-07-20T08:07:36;96181.63;;;28.67;36.33
69411;BME280;56604;48.652;9.194;2023-07-20T08:10:02;96179.78;;;27.23;37.56
69411;BME280;56604;48.652;9.194;2023-07-20T08:12:27;96182.75;;;25.73;40.06
69411;BME280;56604;48.652;9.194;2023-07-20T08:14:53;96176.41;;;26.67;38.36
69411;BME280;56604;48.652;9.194;2023-07-20T08:17:18;96181.41;;;25.19;42.07
69411;BME280;56604;48.652;9.194;2023-07-20T08:19:43;96185.25;;;25.34;41.22
69411;BME280;56604;48.652;9.194;2023-07-20T08:22:09;96183.41;;;26.53;39.55
69411;BME280;56604;48.652;9.194;2023-07-20T08:24:34;96183.94;;;27.86;38.29
69411;BME280;56604;48.652;9.194;2023-07-20T08:27:00;96175.16;;;29.50;34.95
69411;BME280;56604;48.652;9.194;2023-07-20T08:29:25;96179.00;;;29.94;33.58
69411;BME280;56604;48.652;9.194;2023-07-20T08:31:51;96173.34;;;30.13;33.33
69411;BME280;56604;48.652;9.194;2023-07-20T08:34:16;96160.97;;;30.92;31.88
69411;BME280;56604;48.652;9.194;2023-07-20T08:36:41;96185.38;;;27.56;36.43
69411;BME280;56604;48.652;9.194;2023-07-20T08:39:07;96166.66;;;28.20;35.71
69411;BME280;56604;48.652;9.194;2023-07-20T08:41:34;96176.31;;;28.18;36.69
69411;BME280;56604;48.652;9.194;2023-07-20T08:44:00;96176.88;;;28.04;35.61
69411;BME280;56604;48.652;9.194;2023-07-20T08:46:27;96171.28;;;27.90;35.93
69411;BME280;56604;48.652;9.194;2023-07-20T08:48:54;96168.59;;;29.51;34.37
69411;BME280;56604;48.652;9.194;2023-07-20T08:51:21;96171.63;;;29.91;33.43
69411;BME280;56604;48.652;9.194;2023-07-20T08:53:47;96165.75;;;31.53;30.41
69411;BME280;56604;48.652;9.194;2023-07-20T08:56:14;96176.28;;;27.03;36.16
69411;BME280;56604;48.652;9.194;2023-07-20T08:58:43;96169.47;;;27.28;37.56
69411;BME280;56604;48.652;9.194;2023-07-20T09:01:09;96169.09;;;26.68;37.86
69411;BME280;56604;48.652;9.194;2023-07-20T09:03:35;96156.19;;;27.20;37.84
69411;BME280;56604;48.652;9.194;2023-07-20T09:06:04;96163.81;;;27.60;37.18
69411;BME280;56604;48.652;9.194;2023-07-20T09:08:30;96164.84;;;28.28;35.51
69411;BME280;56604;48.652;9.194;2023-07-20T09:10:56;96161.91;;;27.84;35.67
69411;BME280;56604;48.652;9.194;2023-07-20T09:13:21;96157.50;;;29.23;35.49
69411;BME280;56604;48.652;9.194;2023-07-20T09:15:47;96157.97;;;28.95;33.72
69411;BME280;56604;48.652;9.194;2023-07-20T09:18:29;96164.81;;;28.24;34.10
69411;BME280;56604;48.652;9.194;2023-07-20T09:21:00;96165.75;;;27.36;35.46
69411;BME280;56604;48.652;9.194;2023-07-20T09:23:36;96158.09;;;28.41;34.58
69411;BME280;56604;48.652;9.194;2023-07-20T09:26:12;96172.31;;;27.82;34.48
69411;BME280;56604;48.652;9.194;2023-07-20T09:28:43;96159.66;;;27.66;34.82
69411;BME280;56604;48.652;9.194;2023-07-20T09:31:18;96166.34;;;27.72;35.81
69411;BME280;56604;48.652;9.194;2023-07-20T09:33:45;96162.47;;;28.23;34.94
69411;BME280;56604;48.652;9.194;2023-07-20T09:36:10;96157.56;;;28.59;34.64
69411;BME280;56604;48.652;9.194;2023-07-20T09:38:37;96154.09;;;29.74;32.18
69411;BME280;56604;48.652;9.194;2023-07-20T09:41:03;96155.44;;;29.53;32.23
69411;BME280;56604;48.652;9.194;2023-07-20T09:43:30;96154.94;;;30.40;30.51
69411;BME280;56604;48.652;9.194;2023-07-20T09:45:59;96144.69;;;31.07;29.28
69411;BME280;56604;48.652;9.194;2023-07-20T09:48:25;96157.03;;;29.58;31.19
69411;BME280;56604;48.652;9.194;2023-07-20T09:50:51;96143.41;;;29.95;30.90
69411;BME280;56604;48.652;9.194;2023-07-20T09:53:18;96139.50;;;29.93;31.65
69411;BME280;56604;48.652;9.194;2023-07-20T09:55:45;96139.75;;;29.73;31.05
69411;BME280;56604;48.652;9.194;2023-07-20T09:58:11;96143.78;;;29.46;30.14
69411;BME280;56604;48.652;9.194;2023-07-20T10:00:38;96139.03;;;30.42;28.62
69411;BME280;56604;48.652;9.194;2023-07-20T10:03:05;96132.13;;;30.56;29.16
69411;BME280;56604;48.652;9.194;2023-07-20T10:05:33;96151.44;;;29.36;30.22
69411;BME280;56604;48.652;9.194;2023-07-20T10:08:03;96145.72;;;28.70;32.13
69411;BME280;56604;48.652;9.194;2023-07-20T10:10:31;96141.78;;;28.64;32.08
69411;BME280;56604;48.652;9.194;2023-07-20T10:12:58;96144.19;;;27.17;33.99
69411;BME280;56604;48.652;9.194;2023-07-20T10:15:32;96139.69;;;26.63;34.59
69411;BME280;56604;48.652;9.194;2023-07-20T10:18:04;96135.94;;;26.32;35.87
69411;BME280;56604;48.652;9.194;2023-07-20T10:20:35;96127.44;;;27.54;34.07
69411;BME280;56604;48.652;9.194;2023-07-20T10:23:02;96121.56;;;28.24;32.94
69411;BME280;56604;48.652;9.194;2023-07-20T10:25:28;96113.19;;;28.67;32.81
69411;BME280;56604;48.652;9.194;2023-07-20T10:27:54;96108.78;;;29.26;31.63
69411;BME280;56604;48.652;9.194;2023-07-20T10:30:20;96119.53;;;29.16;30.02
69411;BME280;56604;48.652;9.194;2023-07-20T10:32:46;96108.84;;;29.33;30.59
69411;BME280;56604;48.652;9.194;2023-07-20T10:35:16;96102.44;;;29.11;29.79
69411;BME280;56604;48.652;9.194;2023-07-20T10:37:50;96102.31;;;29.93;28.60
69411;BME280;56604;48.652;9.194;2023-07-20T10:40:32;96102.59;;;29.74;29.31
69411;BME280;56604;48.652;9.194;2023-07-20T10:43:08;96103.16;;;29.97;28.59
69411;BME280;56604;48.652;9.194;2023-07-20T10:45:51;96104.50;;;29.25;29.40
69411;BME280;56604;48.652;9.194;2023-07-20T10:48:21;96094.06;;;28.49;29.83
69411;BME280;56604;48.652;9.194;2023-07-20T10:51:12;96094.56;;;27.02;32.23
69411;BME280;56604;48.652;9.194;2023-07-20T10:53:41;96109.09;;;27.17;32.98
69411;BME280;56604;48.652;9.194;2023-07-20T10:56:15;96094.91;;;27.96;33.15
69411;BME280;56604;48.652;9.194;2023-07-20T10:58:44;96088.06;;;28.06;31.28
69411;BME280;56604;48.652;9.194;2023-07-20T11:01:13;96092.75;;;27.56;31.22
69411;BME280;56604;48.652;9.194;2023-07-20T11:03:39;96078.00;;;28.03;31.94
69411;BME280;56604;48.652;9.194;2023-07-20T11:08:55;96083.66;;;27.68;31.00
69411;BME280;56604;48.652;9.194;2023-07-20T11:11:27;96079.03;;;28.21;29.66
69411;BME280;56604;48.652;9.194;2023-07-20T11:13:56;96078.16;;;28.14;29.63
69411;BME280;56604;48.652;9.194;2023-07-20T11:16:45;96078.06;;;28.07;31.72
69411;BME280;56604;48.652;9.194;2023-07-20T11:19:26;96087.00;;;28.41;30.85
69411;BME280;56604;48.652;9.194;2023-07-20T11:21:54;96085.34;;;28.33;30.52
69411;BME280;56604;48.652;9.194;2023-07-20T11:24:20;96076.63;;;29.21;28.50
69411;BME280;56604;48.652;9.194;2023-07-20T11:26:46;96079.78;;;29.30;29.53
69411;BME280;56604;48.652;9.194;2023-07-20T11:29:12;96080.31;;;29.43;29.64
69411;BME280;56604;48.652;9.194;2023-07-20T11:31:39;96082.50;;;29.30;29.46
69411;BME280;56604;48.652;9.194;2023-07-20T11:34:05;96076.13;;;28.71;29.69
69411;BME280;56604;48.652;9.194;2023-07-20T11:36:31;96083.97;;;28.46;29.90
69411;BME280;56604;48.652;9.194;2023-07-20T11:38:58;96078.78;;;28.64;29.00
69411;BME280;56604;48.652;9.194;2023-07-20T11:41:24;96063.72;;;28.33;30.48
69411;BME280;56604;48.652;9.194;2023-07-20T11:43:50;96066.38;;;27.99;30.14
69411;BME280;56604;48.652;9.194;2023-07-20T11:46:16;96066.56;;;27.60;30.60
69411;BME280;56604;48.652;9.194;2023-07-20T11:48:41;96067.09;;;27.43;30.94
69411;BME280;56604;48.652;9.194;2023-07-20T11:51:13;96057.84;;;27.97;31.87
69411;BME280;56604;48.652;9.194;2023-07-20T11:53:40;96058.28;;;27.00;31.30
69411;BME280;56604;48.652;9.194;2023-07-20T11:56:05;96054.81;;;27.49;30.33
69411;BME280;56604;48.652;9.194;2023-07-20T11:58:31;96054.56;;;27.31;29.88
69411;BME280;56604;48.652;9.194;2023-07-20T12:00:57;96051.75;;;27.47;30.91
69411;BME280;56604;48.652;9.194;2023-07-20T12:03:22;96045.44;;;27.92;31.69
69411;BME280;56604;48.652;9.194;2023-07-20T12:05:47;96042.72;;;28.22;28.97
69411;BME280;56604;48.652;9.194;2023-07-20T12:08:14;96041.09;;;28.48;28.15
69411;BME280;56604;48.652;9.194;2023-07-20T12:10:41;96041.56;;;27.90;28.30
69411;BME280;56604;48.652;9.194;2023-07-20T12:13:10;96032.38;;;28.32;29.81
69411;BME280;56604;48.652;9.194;2023-07-20T12:15:36;96046.00;;;27.52;29.94
69411;BME280;56604;48.652;9.194;2023-07-20T12:18:02;96041.88;;;27.85;31.11
69411;BME280;56604;48.652;9.194;2023-07-20T12:23:00;96039.63;;;27.64;30.20
69411;BME280;56604;48.652;9.194;2023-07-20T12:25:42;96040.81;;;27.93;29.88
69411;BME280;56604;48.652;9.194;2023-07-20T12:28:12;96032.97;;;28.14;29.35
69411;BME280;56604;48.652;9.194;2023-07-20T12:30:39;96033.22;;;28.02;29.14
69411;BME280;56604;48.652;9.194;2023-07-20T12:33:05;96028.34;;;27.85;29.54
69411;BME280;56604;48.652;9.194;2023-07-20T12:35:31;96038.50;;;27.95;29.33
69411;BME280;56604;48.652;9.194;2023-07-20T12:37:56;96029.13;;;27.85;28.76
69411;BME280;56604;48.652;9.194;2023-07-20T12:40:22;96025.13;;;28.06;30.08
69411;BME280;56604;48.652;9.194;2023-07-20T12:42:47;96013.28;;;27.57;29.81
69411;BME280;56604;48.652;9.194;2023-07-20T12:45:13;96010.03;;;27.74;30.09
69411;BME280;56604;48.652;9.194;2023-07-20T12:47:39;96017.50;;;27.81;30.66
69411;BME280;56604;48.652;9.194;2023-07-20T12:50:05;96019.69;;;27.19;30.98
69411;BME280;56604;48.652;9.194;2023-07-20T12:52:31;96013.50;;;27.18;31.83
69411;BME280;56604;48.652;9.194;2023-07-20T12:54:57;96013.16;;;27.76;31.37
69411;BME280;56604;48.652;9.194;2023-07-20T12:57:23;96002.56;;;27.91;30.98
69411;BME280;56604;48.652;9.194;2023-07-20T12:59:48;95996.44;;;27.67;30.71
69411;BME280;56604;48.652;9.194;2023-07-20T13:02:14;95992.44;;;27.27;29.81
69411;BME280;56604;48.652;9.194;2023-07-20T13:04:39;96001.84;;;27.67;30.44
69411;BME280;56604;48.652;9.194;2023-07-20T13:07:04;95992.72;;;27.75;29.68